Time;durP1;ratioP1;P1;durP2;ratioP2;P2;SDS_P1;SDS_P2;PMS_P1;PMS_P2;Temp;Humidity;BMP_temperature;BMP_pressure;BME280_temperature;BME280_humidity;BME280_pressure;Samples;Min_cycle;Max_cycle;Signal;HPM_P1;HPM_P2
2023/05/30 00:00:13;;;;;;;16.50;7.43;;;;;;;16.35;60.77;100270.76;123851;1102;104258;-77
2023/05/30 00:03:01;;;;;;;17.05;7.33;;;;;;;16.31;60.82;100265.42;123819;1102;104191;-77
2023/05/30 00:05:30;;;;;;;17.53;7.40;;;;;;;16.26;61.73;100261.86;123906;1102;104360;-78
2023/05/30 00:07:58;;;;;;;16.17;7.40;;;;;;;16.24;61.35;100261.84;123947;1102;104457;-79
2023/05/30 00:10:27;;;;;;;20.27;7.97;;;;;;;16.24;61.30;100261.84;124039;1102;104245;-79
2023/05/30 00:12:56;;;;;;;16.50;7.37;;;;;;;16.23;60.98;100253.89;123805;1100;104261;-78
2023/05/30 00:15:25;;;;;;;19.63;7.50;;;;;;;16.20;61.89;100262.69;123860;1102;104332;-78
2023/05/30 00:17:55;;;;;;;16.10;7.17;;;;;;;16.18;62.48;100261.80;123844;1102;104323;-78
2023/05/30 00:20:23;;;;;;;18.27;7.40;;;;;;;16.17;62.09;100263.56;123749;1102;104325;-78
2023/05/30 00:22:53;;;;;;;18.10;7.70;;;;;;;16.15;62.07;100270.58;123794;1102;104201;-78
2023/05/30 00:25:21;;;;;;;16.97;7.20;;;;;;;16.14;62.68;100266.19;123740;1100;104334;-78
2023/05/30 00:27:51;;;;;;;17.17;7.60;;;;;;;16.14;62.28;100265.27;123822;1099;104239;-78
2023/05/30 00:30:20;;;;;;;19.33;7.63;;;;;;;16.14;62.25;100271.48;123708;1099;104348;-77
2023/05/30 00:32:48;;;;;;;19.00;7.50;;;;;;;16.14;62.48;100270.56;123667;1102;104389;-78
2023/05/30 00:35:18;;;;;;;16.10;7.37;;;;;;;16.14;63.08;100267.92;123731;1102;104242;-77
2023/05/30 00:37:46;;;;;;;18.23;7.23;;;;;;;16.13;63.15;100274.11;123884;1102;104280;-78
2023/05/30 00:40:15;;;;;;;15.80;7.40;;;;;;;16.13;62.97;100269.69;123902;1102;104233;-78
2023/05/30 00:42:44;;;;;;;16.27;7.30;;;;;;;16.14;62.54;100273.22;123921;1102;102135;-78
2023/05/30 00:45:12;;;;;;;16.93;7.23;;;;;;;16.14;63.49;100270.56;123686;1102;104243;-78
2023/05/30 00:47:41;;;;;;;14.23;6.93;;;;;;;16.11;63.54;100275.83;123731;1102;104328;-76
2023/05/30 00:50:11;;;;;;;18.53;7.10;;;;;;;16.10;63.87;100272.30;123774;1099;104345;-77
2023/05/30 00:52:40;;;;;;;14.20;7.00;;;;;;;16.10;63.13;100264.37;123757;1099;102328;-78
2023/05/30 00:55:10;;;;;;;16.20;6.95;;;;;;;16.12;63.52;100272.32;123843;1102;104260;-77
2023/05/30 00:57:39;;;;;;;17.37;7.77;;;;;;;16.10;64.02;100269.66;123700;1102;104355;-78
2023/05/30 01:00:12;;;;;;;17.87;7.60;;;;;;;16.11;64.12;100273.19;123710;1102;104414;-77
2023/05/30 01:02:43;;;;;;;19.97;7.83;;;;;;;16.12;64.21;100272.32;123931;1102;104232;-77
2023/05/30 01:05:14;;;;;;;18.50;8.20;;;;;;;16.10;64.28;100280.25;123760;1102;104245;-77
2023/05/30 01:07:44;;;;;;;16.57;7.20;;;;;;;16.11;63.93;100276.74;123822;1102;104300;-76
2023/05/30 01:10:15;;;;;;;15.33;7.07;;;;;;;16.13;64.04;100272.34;123866;1102;104338;-77
2023/05/30 01:12:52;;;;;;;17.40;7.57;;;;;;;16.16;63.83;100280.31;123867;1102;104396;-77
2023/05/30 01:15:27;;;;;;;16.80;7.30;;;;;;;16.19;64.15;100274.16;123842;1102;104367;-78
2023/05/30 01:18:01;;;;;;;15.07;7.20;;;;;;;16.22;63.59;100268.90;123686;1099;104293;-78
2023/05/30 01:20:37;;;;;;;16.63;7.37;;;;;;;16.25;64.00;100271.58;123829;1099;104222;-79
2023/05/30 01:23:20;;;;;;;16.47;7.60;;;;;;;16.27;63.82;100266.30;123787;1102;104693;-78
2023/05/30 01:26:04;;;;;;;17.20;7.60;;;;;;;16.26;64.49;100265.38;123993;1102;104724;-77
2023/05/30 01:28:36;;;;;;;17.23;7.07;;;;;;;16.24;64.36;100260.97;124155;1099;111527;-77
2023/05/30 01:31:08;;;;;;;14.67;7.20;;;;;;;16.21;64.00;100264.47;123984;1099;104261;-78
2023/05/30 01:33:37;;;;;;;17.57;7.23;;;;;;;16.19;64.35;100263.58;123944;1099;104347;-78
2023/05/30 01:36:07;;;;;;;19.63;7.30;;;;;;;16.21;64.48;100269.77;123910;1102;104383;-78
2023/05/30 01:38:37;;;;;;;16.03;7.33;;;;;;;16.24;64.56;100269.79;123884;1102;104650;-78
2023/05/30 01:41:14;;;;;;;20.27;7.80;;;;;;;16.28;64.05;100268.05;123758;1102;104287;-77
2023/05/30 01:43:50;;;;;;;15.33;7.37;;;;;;;16.32;64.77;100267.21;123851;1102;104264;-78
2023/05/30 01:46:29;;;;;;;26.60;8.17;;;;;;;16.27;64.72;100258.35;123715;1102;104358;-77
2023/05/30 01:49:04;;;;;;;20.03;7.97;;;;;;;16.24;64.82;100256.55;123842;1102;108275;-78
2023/05/30 01:51:41;;;;;;;16.97;8.00;;;;;;;16.25;64.39;100268.92;123729;1102;104242;-80
2023/05/30 01:54:16;;;;;;;18.53;7.57;;;;;;;16.20;64.93;100259.16;123772;1102;104267;-78
2023/05/30 01:56:48;;;;;;;17.50;7.35;;;;;;;16.15;64.32;100259.11;123629;1102;104245;-77
2023/05/30 01:59:20;;;;;;;20.00;7.70;;;;;;;16.10;64.51;100260.84;123676;1102;104348;-77
2023/05/30 02:01:49;;;;;;;20.53;8.10;;;;;;;16.09;65.34;100262.58;123897;1102;104405;-77
2023/05/30 02:04:18;;;;;;;18.30;8.17;;;;;;;16.06;65.91;100257.27;124291;1099;104245;-79
2023/05/30 02:06:46;;;;;;;20.23;7.90;;;;;;;16.02;65.29;100266.06;123952;1102;102190;-78
2023/05/30 02:09:18;;;;;;;17.00;7.93;;;;;;;15.96;65.11;100260.70;123843;1102;104309;-78
2023/05/30 02:11:46;;;;;;;19.83;8.37;;;;;;;15.92;65.07;100266.83;123871;1102;104331;-78
2023/05/30 02:14:15;;;;;;;19.13;7.47;;;;;;;15.86;65.26;100270.29;123934;1099;104242;-78
2023/05/30 02:16:44;;;;;;;17.77;7.33;;;;;;;15.81;65.79;100258.78;123815;1101;104284;-78
2023/05/30 02:19:18;;;;;;;17.97;7.80;;;;;;;15.79;65.37;100274.64;123832;1101;104290;-77
2023/05/30 02:21:46;;;;;;;17.33;7.57;;;;;;;15.79;65.53;100266.70;123860;1102;104364;-78
2023/05/30 02:24:15;;;;;;;17.20;7.67;;;;;;;15.81;65.86;100272.01;123871;1100;104229;-78
2023/05/30 02:26:44;;;;;;;14.67;7.50;;;;;;;15.79;65.79;100279.05;123863;1102;104178;-77
2023/05/30 02:29:12;;;;;;;17.27;8.00;;;;;;;15.73;66.54;100277.18;123763;1102;104358;-78
2023/05/30 02:31:41;;;;;;;16.83;7.53;;;;;;;15.68;65.91;100276.25;123726;1102;104656;-78
2023/05/30 02:34:10;;;;;;;16.53;7.37;;;;;;;15.64;66.47;100277.98;123754;1102;104367;-78
2023/05/30 02:36:39;;;;;;;20.03;8.20;;;;;;;15.60;66.78;100277.93;123714;1102;104328;-77
2023/05/30 02:39:10;;;;;;;23.83;8.37;;;;;;;15.57;67.24;100280.54;123706;1100;104361;-79
2023/05/30 02:41:42;;;;;;;17.23;7.73;;;;;;;15.55;67.35;100279.61;123755;1099;104245;-78
2023/05/30 02:44:10;;;;;;;19.03;7.53;;;;;;;15.55;66.49;100272.59;123739;1099;104296;-78
2023/05/30 02:46:40;;;;;;;16.13;7.63;;;;;;;15.55;67.07;100276.97;123988;1099;104351;-78
2023/05/30 02:49:09;;;;;;;18.37;7.90;;;;;;;15.57;67.58;100275.25;123707;1102;104334;-78
2023/05/30 02:51:37;;;;;;;17.40;8.43;;;;;;;15.58;67.68;100274.36;123766;1099;104354;-78
2023/05/30 02:54:06;;;;;;;19.70;8.20;;;;;;;15.58;68.18;100274.36;123816;1102;104257;-78
2023/05/30 02:56:58;;;;;;;19.43;8.37;;;;;;;15.54;67.27;100272.56;123615;1102;104399;-78
2023/05/30 02:59:50;;;;;;;19.10;8.10;;;;;;;15.53;67.96;100271.66;123719;1102;104329;-78
2023/05/30 03:02:19;;;;;;;22.30;8.40;;;;;;;15.52;68.41;100274.28;123754;1102;104280;-77
2023/05/30 03:04:48;;;;;;;16.03;7.53;;;;;;;15.50;68.32;100276.91;123696;1102;104406;-79
2023/05/30 03:07:17;;;;;;;20.17;8.33;;;;;;;15.52;68.07;100279.58;123674;1100;104277;-77
2023/05/30 03:09:47;;;;;;;22.40;8.63;;;;;;;15.53;67.75;100284.00;123720;1102;104226;-77
2023/05/30 03:12:18;;;;;;;19.67;7.80;;;;;;;15.53;68.71;100290.17;123819;1099;104230;-77
2023/05/30 03:14:47;;;;;;;17.93;8.33;;;;;;;15.52;68.78;100285.77;123787;1102;104284;-77
2023/05/30 03:17:16;;;;;;;15.97;7.77;;;;;;;15.51;68.36;100291.05;123646;1102;104373;-78
2023/05/30 03:19:45;;;;;;;19.67;7.50;;;;;;;15.51;68.35;100288.40;123847;1099;104277;-79
2023/05/30 03:22:13;;;;;;;22.80;8.00;;;;;;;15.54;68.51;100294.60;123774;1102;104277;-78
2023/05/30 03:24:42;;;;;;;15.70;7.83;;;;;;;15.57;69.54;100294.64;123853;1102;105049;-79
2023/05/30 03:27:11;;;;;;;22.30;7.90;;;;;;;15.59;69.25;100295.53;123761;1102;104475;-77
2023/05/30 03:29:41;;;;;;;16.65;7.85;;;;;;;15.63;69.51;100300.00;123863;1102;104386;-79
2023/05/30 03:32:10;;;;;;;17.40;7.90;;;;;;;15.70;68.99;100300.08;123919;1102;104335;-79
2023/05/30 03:34:38;;;;;;;17.33;7.57;;;;;;;15.73;68.87;100303.63;123783;1102;104367;-78
2023/05/30 03:37:07;;;;;;;18.60;7.70;;;;;;;15.80;68.98;100305.53;123848;1102;104408;-78
2023/05/30 03:39:36;;;;;;;15.97;7.77;;;;;;;15.88;69.52;100307.34;123818;1099;104270;-78
2023/05/30 03:42:07;;;;;;;17.50;7.60;;;;;;;15.94;68.91;100304.77;123981;1099;104334;-79
2023/05/30 03:44:35;;;;;;;18.10;7.67;;;;;;;15.95;69.08;100301.27;123921;1099;104611;-79
2023/05/30 03:47:05;;;;;;;14.87;7.00;;;;;;;16.00;69.15;100302.19;123876;1102;104220;-78
2023/05/30 03:49:33;;;;;;;16.23;7.60;;;;;;;16.08;69.90;100305.83;123826;1099;104274;-78
2023/05/30 03:52:02;;;;;;;17.65;7.70;;;;;;;16.13;69.57;100306.75;123776;1102;104783;-78
2023/05/30 03:54:31;;;;;;;18.10;7.00;;;;;;;16.20;68.85;100298.87;123771;1100;104245;-77
2023/05/30 03:57:00;;;;;;;16.87;7.40;;;;;;;16.27;68.91;100298.06;124020;1102;104223;-79
2023/05/30 03:59:28;;;;;;;17.90;7.67;;;;;;;16.34;69.16;100307.81;123937;1099;104354;-77
2023/05/30 04:01:57;;;;;;;15.03;7.13;;;;;;;16.41;69.54;100299.06;123823;1100;104182;-77
2023/05/30 04:04:26;;;;;;;15.23;7.53;;;;;;;16.49;68.81;100304.43;123792;1102;104777;-78
2023/05/30 04:06:55;;;;;;;18.93;7.60;;;;;;;16.55;69.43;100315.08;123829;1102;104245;-78
2023/05/30 04:09:23;;;;;;;17.53;7.53;;;;;;;16.61;68.96;100312.48;123851;1102;104380;-80
2023/05/30 04:11:52;;;;;;;17.57;7.47;;;;;;;16.66;69.31;100312.52;123829;1102;104245;-78
2023/05/30 04:14:21;;;;;;;16.30;7.43;;;;;;;16.71;69.06;100316.95;123738;1102;104307;-78
2023/05/30 04:16:49;;;;;;;19.23;7.67;;;;;;;16.79;68.88;100303.77;123771;1099;104242;-78
2023/05/30 04:19:18;;;;;;;17.50;7.23;;;;;;;16.87;69.01;100312.68;123333;1101;104380;-78
2023/05/30 04:21:46;;;;;;;16.43;7.33;;;;;;;16.92;68.59;100312.71;123643;1102;104435;-76
2023/05/30 04:24:15;;;;;;;19.75;8.50;;;;;;;16.98;68.72;100315.41;123481;1101;104248;-76
2023/05/30 04:26:48;;;;;;;14.47;7.30;;;;;;;17.01;69.31;100315.42;123613;1102;104175;-75
2023/05/30 04:29:19;;;;;;;16.93;7.23;;;;;;;17.06;68.96;100315.45;123721;1102;104351;-76
2023/05/30 04:31:48;;;;;;;18.43;7.87;;;;;;;17.10;68.58;100317.26;123748;1102;104486;-78
2023/05/30 04:34:18;;;;;;;19.80;7.40;;;;;;;17.16;68.91;100311.11;123669;1102;104371;-77
2023/05/30 04:36:46;;;;;;;20.67;7.60;;;;;;;17.23;68.76;100319.11;123923;1102;104358;-79
2023/05/30 04:39:15;;;;;;;18.27;7.70;;;;;;;17.33;68.67;100332.42;123994;1102;102110;-79
2023/05/30 04:41:43;;;;;;;15.77;7.37;;;;;;;17.41;68.51;100331.56;123846;1099;104274;-80
2023/05/30 04:44:13;;;;;;;16.70;7.03;;;;;;;17.50;68.48;100332.48;123972;1102;104342;-79
2023/05/30 04:46:46;;;;;;;17.97;7.07;;;;;;;17.57;68.13;100334.30;123876;1102;104842;-77
2023/05/30 04:49:15;;;;;;;18.03;6.90;;;;;;;17.64;68.23;100333.45;123595;1099;104284;-77
2023/05/30 04:51:44;;;;;;;15.87;7.30;;;;;;;17.71;67.85;100340.53;123849;1099;104286;-76
2023/05/30 04:54:14;;;;;;;16.07;7.17;;;;;;;17.76;67.74;100341.47;123676;1099;104398;-77
2023/05/30 04:56:42;;;;;;;19.40;7.30;;;;;;;17.82;68.01;100340.58;123601;1102;104348;-80
2023/05/30 04:59:11;;;;;;;17.17;6.63;;;;;;;17.90;67.58;100344.20;123749;1099;104252;-81
2023/05/30 05:01:41;;;;;;;16.57;6.80;;;;;;;17.98;67.57;100346.84;123743;1102;104304;-77
2023/05/30 05:04:10;;;;;;;16.33;6.87;;;;;;;18.04;67.69;100346.87;124301;1102;104258;-82
2023/05/30 05:06:39;;;;;;;18.53;7.10;;;;;;;18.13;67.24;100346.89;123731;1102;104229;-82
2023/05/30 05:09:08;;;;;;;16.77;6.97;;;;;;;18.21;67.12;100346.03;124013;1102;104395;-77
2023/05/30 05:11:36;;;;;;;15.37;6.77;;;;;;;18.29;67.04;100344.27;124091;1102;104290;-82
2023/05/30 05:14:05;;;;;;;16.53;6.83;;;;;;;18.41;67.11;100348.72;124151;1099;104242;-76
2023/05/30 05:16:37;;;;;;;15.77;6.73;;;;;;;18.50;67.04;100335.45;124353;1102;104364;-81
2023/05/30 05:19:05;;;;;;;16.13;6.30;;;;;;;18.60;66.11;100338.98;124220;1099;104248;-76
2023/05/30 05:21:35;;;;;;;15.90;6.40;;;;;;;18.66;65.96;100342.52;124221;1099;104175;-75
2023/05/30 05:24:05;;;;;;;14.97;6.37;;;;;;;18.75;65.35;100351.41;124331;1102;104181;-75
2023/05/30 05:26:34;;;;;;;15.63;6.77;;;;;;;18.82;65.34;100345.17;124680;1101;102756;-74
2023/05/30 05:29:02;;;;;;;14.87;6.53;;;;;;;18.90;65.23;100340.80;124399;1099;104779;-75
2023/05/30 05:31:33;;;;;;;12.23;6.07;;;;;;;19.02;65.87;100342.53;124702;1100;104173;-74
2023/05/30 05:34:01;;;;;;;15.57;6.53;;;;;;;19.12;65.12;100338.98;124588;1099;104210;-74
2023/05/30 05:36:31;;;;;;;16.80;6.67;;;;;;;19.21;64.26;100340.72;124549;1099;104188;-76
2023/05/30 05:38:59;;;;;;;13.87;6.37;;;;;;;19.29;64.29;100346.93;124442;1102;104246;-77
2023/05/30 05:41:31;;;;;;;13.33;6.53;;;;;;;19.36;64.57;100347.79;124867;1102;102247;-75
2023/05/30 05:44:00;;;;;;;15.10;6.67;;;;;;;19.44;63.43;100334.47;124356;1102;104234;-78
2023/05/30 05:46:28;;;;;;;20.27;6.67;;;;;;;19.52;63.69;100341.52;124362;1102;104188;-79
2023/05/30 05:48:57;;;;;;;17.30;6.45;;;;;;;19.61;63.65;100337.95;124507;1102;104680;-74
2023/05/30 05:51:25;;;;;;;12.10;5.33;;;;;;;19.68;63.32;100329.05;124348;1102;104254;-78
2023/05/30 05:53:56;;;;;;;14.47;5.63;;;;;;;19.78;62.91;100340.56;124454;1102;104284;-78
2023/05/30 05:56:26;;;;;;;15.23;5.60;;;;;;;19.92;62.62;100343.16;124398;1099;102637;-75
2023/05/30 05:58:54;;;;;;;13.17;5.27;;;;;;;20.03;62.64;100351.97;124691;1099;103009;-77
2023/05/30 06:01:23;;;;;;;11.55;5.30;;;;;;;20.14;62.46;100345.71;124740;1102;102373;-78
2023/05/30 06:03:52;;;;;;;12.57;5.20;;;;;;;20.23;61.10;100343.87;124554;1102;104248;-80
2023/05/30 06:06:21;;;;;;;14.53;5.67;;;;;;;20.34;61.46;100351.79;124526;1102;102843;-77
2023/05/30 06:08:50;;;;;;;10.47;4.90;;;;;;;20.44;60.78;100344.61;124254;1102;104195;-76
2023/05/30 06:11:28;;;;;;;15.63;6.00;;;;;;;20.53;61.12;100349.87;124359;1102;104235;-80
2023/05/30 06:14:01;;;;;;;11.53;5.20;;;;;;;20.61;60.60;100355.14;124350;1102;104237;-79
2023/05/30 06:16:30;;;;;;;9.77;4.50;;;;;;;20.64;58.89;100356.02;124279;1102;104254;-77
2023/05/30 06:18:59;;;;;;;11.33;4.60;;;;;;;20.70;58.96;100351.56;124018;1102;104325;-77
2023/05/30 06:21:28;;;;;;;9.23;4.50;;;;;;;20.78;58.48;100350.58;124399;1101;104188;-80
2023/05/30 06:23:57;;;;;;;10.23;4.80;;;;;;;20.83;57.87;100343.45;124297;1100;104261;-78
2023/05/30 06:26:26;;;;;;;10.50;4.60;;;;;;;20.88;57.85;100351.41;124284;1099;103117;-73
2023/05/30 06:28:56;;;;;;;11.70;4.30;;;;;;;20.95;57.51;100345.09;124372;1102;104431;-75
2023/05/30 06:31:25;;;;;;;12.80;4.67;;;;;;;21.04;56.91;100345.94;124336;1102;102114;-74
2023/05/30 06:33:58;;;;;;;6.93;4.23;;;;;;;21.13;56.99;100341.38;124636;1099;104236;-76
2023/05/30 06:36:28;;;;;;;14.13;4.77;;;;;;;21.27;56.91;100351.00;124509;1102;103572;-72
2023/05/30 06:38:57;;;;;;;11.80;4.70;;;;;;;21.37;56.16;100347.34;124342;1102;103161;-74
2023/05/30 06:41:27;;;;;;;13.30;4.90;;;;;;;21.47;56.46;100361.47;124688;1102;104258;-77
2023/05/30 06:44:00;;;;;;;13.90;4.28;;;;;;;21.60;55.90;100355.13;124611;1102;104169;-77
2023/05/30 06:46:33;;;;;;;12.60;4.70;;;;;;;21.72;55.21;100352.31;124475;1102;103822;-81
2023/05/30 06:49:02;;;;;;;12.33;4.10;;;;;;;21.81;54.83;100348.61;124330;1102;103306;-77
2023/05/30 06:51:32;;;;;;;11.97;4.60;;;;;;;21.93;54.46;100352.05;124568;1099;104283;-78
2023/05/30 06:54:01;;;;;;;8.53;4.20;;;;;;;22.04;53.92;100350.11;124350;1099;104163;-74
2023/05/30 06:56:31;;;;;;;9.28;4.55;;;;;;;22.15;53.60;100347.29;115790;1099;10009434;-79
2023/05/30 06:59:05;;;;;;;10.48;4.15;;;;;;;22.30;51.47;100344.42;115873;1102;10001478;-78
2023/05/30 07:01:34;;;;;;;11.80;4.63;;;;;;;22.46;50.68;100334.37;124587;1099;104169;-78
2023/05/30 07:04:05;;;;;;;10.80;4.60;;;;;;;22.61;51.61;100336.80;124765;1102;102780;-74
2023/05/30 07:06:33;;;;;;;9.50;4.60;;;;;;;22.82;52.02;100329.31;124285;1102;104198;-78
2023/05/30 07:09:03;;;;;;;8.00;4.13;;;;;;;23.02;50.76;100330.76;124588;1102;104201;-80
2023/05/30 07:11:32;;;;;;;9.80;4.13;;;;;;;23.14;49.76;100330.57;124385;1102;104272;-81
2023/05/30 07:14:00;;;;;;;9.23;4.23;;;;;;;23.24;49.68;100328.59;124397;1102;104274;-78
2023/05/30 07:16:32;;;;;;;7.80;3.83;;;;;;;23.39;49.56;100319.36;124666;1100;104229;-83
2023/05/30 07:19:01;;;;;;;9.00;4.07;;;;;;;23.65;48.96;100327.77;125455;1102;102293;-80
2023/05/30 07:21:30;;;;;;;7.17;3.93;;;;;;;23.89;48.03;100322.81;124513;1099;104242;-80
2023/05/30 07:24:02;;;;;;;11.07;4.30;;;;;;;24.13;48.67;100323.17;124705;1102;104657;-79
2023/05/30 07:26:31;;;;;;;9.13;3.90;;;;;;;24.27;46.86;100326.41;124468;1102;104226;-76
2023/05/30 07:29:00;;;;;;;12.63;3.90;;;;;;;24.29;46.12;100321.87;124373;1102;104274;-77
2023/05/30 07:31:29;;;;;;;9.13;4.00;;;;;;;24.45;46.35;100321.51;124703;1099;104201;-80
2023/05/30 07:34:01;;;;;;;12.43;4.47;;;;;;;24.70;46.25;100319.16;124586;1102;103148;-79
2023/05/30 07:36:30;;;;;;;10.33;4.20;;;;;;;24.95;46.10;100330.12;124281;1102;104351;-78
2023/05/30 07:38:59;;;;;;;11.10;4.10;;;;;;;25.15;45.00;100321.53;124411;1101;104248;-81
2023/05/30 07:41:28;;;;;;;11.80;4.10;;;;;;;25.23;43.64;100318.64;124564;1102;104243;-80
2023/05/30 07:43:57;;;;;;;10.15;4.30;;;;;;;25.41;44.35;100315.44;124688;1102;102652;-82
2023/05/30 07:46:27;;;;;;;9.20;3.63;;;;;;;25.57;43.15;100313.22;125297;1101;104884;-83
2023/05/30 07:48:58;;;;;;;6.90;3.73;;;;;;;25.78;42.44;100319.73;125255;1102;104252;-83
2023/05/30 07:51:28;;;;;;;6.87;3.80;;;;;;;25.93;41.81;100318.41;124507;1099;104350;-82
2023/05/30 07:54:00;;;;;;;8.43;4.10;;;;;;;26.07;42.20;100312.63;124149;1102;104323;-80
2023/05/30 07:56:30;;;;;;;8.17;3.70;;;;;;;26.11;42.21;100314.27;124150;1099;107784;-79
2023/05/30 07:58:58;;;;;;;8.33;3.80;;;;;;;26.07;40.85;100317.11;124454;1102;104220;-78
2023/05/30 08:01:27;;;;;;;17.13;3.97;;;;;;;25.95;40.12;100315.67;124650;1102;104175;-82
2023/05/30 08:04:00;;;;;;;8.40;3.60;;;;;;;25.79;39.04;100316.13;124734;1102;104194;-83
2023/05/30 08:06:31;;;;;;;8.17;3.50;;;;;;;25.61;39.54;100317.55;124678;1099;118879;-82
2023/05/30 08:09:00;;;;;;;13.43;3.80;;;;;;;25.51;39.50;100296.38;124647;1099;104855;-81
2023/05/30 08:11:30;;;;;;;8.37;3.93;;;;;;;25.88;39.39;100322.15;125544;1102;103013;-81
2023/05/30 08:14:03;;;;;;;8.93;3.73;;;;;;;26.01;39.84;100307.45;124715;1099;104204;-81
2023/05/30 08:16:38;;;;;;;8.13;3.83;;;;;;;26.30;38.83;100314.59;124303;1102;104249;-86
2023/05/30 08:19:07;;;;;;;8.17;3.80;;;;;;;26.43;37.97;100311.47;124613;1099;104265;-80
2023/05/30 08:21:39;;;;;;;6.33;3.50;;;;;;;26.55;39.31;100309.27;124895;1102;103862;-81
2023/05/30 08:24:09;;;;;;;11.70;4.00;;;;;;;26.70;38.53;100307.02;124301;1102;104227;-75
2023/05/30 08:26:42;;;;;;;8.00;3.93;;;;;;;26.69;38.36;100305.25;124297;1102;104150;-81
2023/05/30 08:29:12;;;;;;;6.67;4.10;;;;;;;26.81;38.35;100298.58;124500;1102;102607;-83
2023/05/30 08:31:41;;;;;;;10.20;3.97;;;;;;;27.02;38.26;100302.31;124554;1099;104278;-83
2023/05/30 08:34:11;;;;;;;10.57;3.87;;;;;;;27.15;37.79;100305.47;124451;1102;103740;-82
2023/05/30 08:36:44;;;;;;;8.23;3.10;;;;;;;27.16;36.12;100305.41;124653;1102;102777;-83
2023/05/30 08:39:14;;;;;;;8.33;3.50;;;;;;;27.05;35.65;100299.51;124552;1101;104233;-78
2023/05/30 08:41:43;;;;;;;7.33;3.30;;;;;;;27.04;36.14;100316.62;124480;1102;104284;-84
2023/05/30 08:44:14;;;;;;;7.67;4.00;;;;;;;26.95;36.30;100298.96;124442;1102;103711;-80
2023/05/30 08:47:07;;;;;;;9.75;3.65;;;;;;;27.01;36.46;100295.19;124310;1102;104421;-79
2023/05/30 08:49:40;;;;;;;7.90;3.63;;;;;;;27.14;36.33;100299.17;124284;1102;104229;-80
2023/05/30 08:52:16;;;;;;;6.97;3.40;;;;;;;27.05;35.85;100292.33;124414;1102;104252;-83
2023/05/30 08:54:58;;;;;;;7.60;3.43;;;;;;;27.16;35.48;100299.13;124392;1102;104236;-78
2023/05/30 08:57:37;;;;;;;8.60;3.40;;;;;;;27.17;35.31;100295.50;124284;1102;104280;-78
2023/05/30 09:00:11;;;;;;;8.73;3.40;;;;;;;27.11;34.44;100290.34;124927;1102;102812;-79
2023/05/30 09:02:43;;;;;;;12.40;3.90;;;;;;;26.99;33.67;100307.80;124873;1101;104742;-81
2023/05/30 09:05:15;;;;;;;6.20;3.10;;;;;;;27.03;34.43;100296.00;125016;1101;104249;-78
2023/05/30 09:07:44;;;;;;;4.73;3.23;;;;;;;27.09;33.93;100277.80;124823;1102;102384;-81
2023/05/30 09:10:15;;;;;;;6.40;3.27;;;;;;;27.13;33.84;100289.36;124739;1102;104172;-80
2023/05/30 09:12:44;;;;;;;7.90;3.57;;;;;;;27.08;33.00;100299.40;124877;1102;104162;-81
2023/05/30 09:15:16;;;;;;;6.03;3.27;;;;;;;27.06;32.89;100295.89;125165;1102;104305;-81
2023/05/30 09:17:45;;;;;;;5.83;2.90;;;;;;;27.13;33.43;100305.52;125012;1102;103483;-83
2023/05/30 09:20:17;;;;;;;7.07;3.60;;;;;;;27.16;32.53;100293.73;125630;1102;102518;-82
2023/05/30 09:22:46;;;;;;;6.10;3.20;;;;;;;27.11;32.54;100287.64;125537;1102;102708;-84
2023/05/30 09:25:16;;;;;;;8.43;3.20;;;;;;;27.13;32.66;100283.98;124772;1102;104176;-83
2023/05/30 09:27:47;;;;;;;3.70;2.87;;;;;;;27.08;32.84;100285.94;124820;1102;104182;-82
2023/05/30 09:30:20;;;;;;;6.83;2.80;;;;;;;26.94;31.14;100283.73;124775;1102;104165;-83
2023/05/30 09:33:02;;;;;;;8.00;3.22;;;;;;;26.97;31.55;100282.75;124698;1102;102927;-83
2023/05/30 09:35:31;;;;;;;6.73;3.23;;;;;;;26.99;31.41;100286.27;125218;1102;104281;-82
2023/05/30 09:38:05;;;;;;;5.03;2.97;;;;;;;26.94;30.95;100282.86;125386;1102;104175;-79
2023/05/30 09:40:36;;;;;;;8.70;3.53;;;;;;;26.94;30.86;100289.12;124786;1102;104229;-84
2023/05/30 09:43:06;;;;;;;4.33;2.80;;;;;;;27.00;30.54;100277.27;124972;1102;103220;-80
2023/05/30 09:45:54;;;;;;;6.57;2.83;;;;;;;27.01;30.09;100282.59;125644;1102;104277;-83
2023/05/30 09:48:42;;;;;;;4.60;2.97;;;;;;;26.92;30.15;100279.36;125366;1102;118739;-84
2023/05/30 09:51:16;;;;;;;6.13;2.90;;;;;;;26.86;29.01;100296.59;125547;1102;104211;-83
2023/05/30 09:54:00;;;;;;;5.83;3.00;;;;;;;26.82;29.92;100276.99;125557;1102;104217;-82
2023/05/30 09:56:44;;;;;;;4.33;2.77;;;;;;;26.93;30.02;100278.41;124758;1102;104236;-81
2023/05/30 09:59:15;;;;;;;7.60;3.02;;;;;;;26.92;29.42;100284.74;116969;1102;10002178;-80
2023/05/30 10:01:49;;;;;;;5.53;3.07;;;;;;;26.88;29.45;100282.16;116564;1102;10001110;-83
2023/05/30 10:04:25;;;;;;;9.00;2.90;;;;;;;26.79;29.40;100277.09;125708;1099;102767;-82
2023/05/30 10:07:01;;;;;;;7.00;2.90;;;;;;;26.84;28.65;100282.32;124939;1102;103241;-86
2023/05/30 10:09:38;;;;;;;6.90;2.90;;;;;;;26.77;29.08;100281.67;125629;1099;102126;-79
2023/05/30 10:12:12;;;;;;;4.30;2.60;;;;;;;26.78;29.31;100275.33;125542;1099;103123;-81
2023/05/30 10:14:43;;;;;;;7.97;3.10;;;;;;;26.80;28.95;100265.41;124542;1102;104177;-80
2023/05/30 10:17:18;;;;;;;5.77;2.90;;;;;;;26.81;28.79;100267.14;124642;1102;104809;-80
2023/05/30 10:19:56;;;;;;;7.10;2.90;;;;;;;26.62;29.01;100264.20;124756;1099;104105;-82
2023/05/30 10:22:44;;;;;;;4.83;2.70;;;;;;;26.65;29.10;100268.60;124619;1099;104224;-86
2023/05/30 10:25:20;;;;;;;7.30;2.90;;;;;;;26.65;27.99;100276.67;125695;1099;102228;-81
2023/05/30 10:31:18;;;;;;;8.30;2.73;;;;;;;26.70;29.06;100262.14;125825;1102;102385;-80
2023/05/30 10:33:55;;;;;;;6.03;2.90;;;;;;;26.75;28.59;100261.98;124759;1102;104255;-80
2023/05/30 10:36:29;;;;;;;10.03;3.00;;;;;;;26.70;28.75;100263.96;124866;1102;104652;-79
2023/05/30 10:39:27;;;;;;;8.73;3.23;;;;;;;26.71;28.67;100263.91;125323;1102;102394;-81
2023/05/30 10:42:21;;;;;;;;;;;;;;;;;;;;;
2023/05/30 10:45:04;;;;;;;5.70;3.23;;;;;;;26.68;28.52;100260.45;126031;1105;102721;-80
2023/05/30 10:47:59;;;;;;;5.87;2.60;;;;;;;26.79;28.92;100263.64;126081;1103;101714;-86
2023/05/30 10:50:41;;;;;;;5.70;2.90;;;;;;;26.87;28.93;100260.68;125923;1105;102654;-83
2023/05/30 10:53:19;;;;;;;7.03;3.20;;;;;;;26.96;28.61;100254.06;125699;1102;102717;-85
2023/05/30 10:55:52;;;;;;;6.57;3.03;;;;;;;26.99;28.40;100254.86;124522;1105;102229;-83
2023/05/30 10:58:47;;;;;;;5.58;2.62;;;;;;;26.95;28.15;100257.71;125338;1105;102001;-79
2023/05/30 11:01:32;;;;;;;5.10;2.77;;;;;;;26.88;27.81;100249.86;124169;1105;104248;-77
2023/05/30 11:04:11;;;;;;;7.83;3.47;;;;;;;26.87;28.03;100257.98;124368;1105;104201;-76
2023/05/30 11:07:05;;;;;;;5.45;2.90;;;;;;;26.94;27.90;100256.81;116235;1105;10001771;-77
2023/05/30 11:09:43;;;;;;;9.37;2.97;;;;;;;26.88;28.28;100247.16;126226;1105;102104;-78
2023/05/30 11:12:27;;;;;;;6.10;3.00;;;;;;;26.94;28.00;100250.56;126024;1102;102514;-79
2023/05/30 11:15:02;;;;;;;5.37;2.87;;;;;;;26.98;28.47;100244.14;126279;1101;102420;-75
2023/05/30 11:17:40;;;;;;;7.83;3.17;;;;;;;27.00;28.33;100235.05;125905;1102;102923;-77
2023/05/30 11:20:19;;;;;;;5.37;3.13;;;;;;;27.04;28.17;100236.70;126065;1102;102346;-79
2023/05/30 11:23:19;;;;;;;7.30;2.97;;;;;;;27.08;28.35;100232.08;125897;1105;102876;-80
2023/05/30 11:25:56;;;;;;;9.67;3.30;;;;;;;27.07;28.01;100233.91;126022;1102;103883;-77
2023/05/30 11:28:45;;;;;;;5.97;3.03;;;;;;;27.14;27.95;100234.55;124819;1102;102475;-79